Corral de Bustos, Argentina
Current Conditions -  °F | °C
As of 7:00 AM on Tuesday 21 Oct 2014 (Local Time) from SAAR Reporting Station
Clear Clear  
Wind Chill: 15°   Ceiling: Unl
Heat Index: 15°   Visibility: 6mi
Dew Point: 11°   Wind: 3mph
Humidity: 77%   Direction: 360°N
Pressure: 30.06"   Gusts: NA
Location:  33.28°S, 62.2°W
Report Text: SAAR 211000Z 36003KT CAVOK 15/11 Q1018
Loading
Personal Weather Stations






























Interactive Weather Map
Tropical Storm Tracking
New forecast layout! Learn more

10-Day Weather Forecast

Advertisements
Track Severe Weather on mobile